createdAt,value
2017-08-07T00:04:27.712Z,72.20
2017-08-07T00:09:31.670Z,71.70
2017-08-07T00:14:34.896Z,71.70
2017-08-07T00:19:38.062Z,70.30
2017-08-07T00:24:41.238Z,70.20
2017-08-07T00:29:44.410Z,70.20
2017-08-07T00:34:47.585Z,69.60
2017-08-07T00:39:51.589Z,68.60
2017-08-07T00:44:54.765Z,68.60
2017-08-07T00:49:57.960Z,69.00
2017-08-07T00:55:01.153Z,69.10
2017-08-07T01:00:04.348Z,69.40
2017-08-07T01:05:07.527Z,70.00
2017-08-07T01:10:11.466Z,72.10
2017-08-07T01:15:15.413Z,72.10
2017-08-07T01:20:18.606Z,72.00
2017-08-07T01:25:21.825Z,71.70
2017-08-07T01:30:24.999Z,72.00
2017-08-07T01:35:28.936Z,72.50
2017-08-07T01:40:32.119Z,72.40
2017-08-07T01:45:35.305Z,72.20
2017-08-07T01:50:38.490Z,72.20
2017-08-07T01:55:41.689Z,72.30
2017-08-07T02:00:44.888Z,73.00
2017-08-07T02:05:48.058Z,74.10
2017-08-07T02:10:51.241Z,75.00
2017-08-07T02:15:54.409Z,75.40
2017-08-07T02:20:57.597Z,76.00
2017-08-07T02:26:01.545Z,78.00
2017-08-07T02:31:04.730Z,77.90
2017-08-07T02:36:07.943Z,78.60
2017-08-07T02:41:11.131Z,78.60
2017-08-07T02:46:15.088Z,78.90
2017-08-07T02:51:18.270Z,78.80
2017-08-07T02:56:22.221Z,79.60
2017-08-07T03:01:25.415Z,79.60
2017-08-07T03:06:28.612Z,79.90
2017-08-07T03:11:32.544Z,81.30
2017-08-07T03:16:35.722Z,80.70
2017-08-07T03:21:38.952Z,81.00
2017-08-07T03:26:42.910Z,82.00
2017-08-07T03:31:46.089Z,81.90
2017-08-07T03:36:49.278Z,81.80
2017-08-07T03:41:53.238Z,82.20
2017-08-07T03:46:56.395Z,82.20
2017-08-07T03:51:59.587Z,82.50
2017-08-07T03:57:02.785Z,82.70
2017-08-07T04:02:05.972Z,82.50
2017-08-07T04:07:09.173Z,82.30
2017-08-07T04:12:12.363Z,82.30
2017-08-07T04:17:15.548Z,82.40
2017-08-07T04:22:19.521Z,81.60
2017-08-07T04:27:22.710Z,81.50
2017-08-07T04:32:25.934Z,80.80
2017-08-07T04:37:29.137Z,80.50
2017-08-07T04:42:32.318Z,79.90
2017-08-07T04:47:35.496Z,80.00
2017-08-07T04:52:38.678Z,79.50
2017-08-07T04:57:41.874Z,78.60
2017-08-07T05:02:45.053Z,76.60
2017-08-07T05:07:48.240Z,74.10
2017-08-07T05:12:52.201Z,71.10
2017-08-07T05:17:55.367Z,71.00
2017-08-07T05:22:59.330Z,66.80
2017-08-07T05:28:02.527Z,66.80
2017-08-07T05:33:05.699Z,66.40
2017-08-07T05:38:09.652Z,63.50
2017-08-07T05:43:12.842Z,63.40
2017-08-07T05:48:16.781Z,61.50
2017-08-07T05:53:19.949Z,61.50
2017-08-07T05:58:23.218Z,62.80
2017-08-07T06:03:26.442Z,58.50
2017-08-07T06:08:29.661Z,57.50
2017-08-07T06:13:32.863Z,55.80
2017-08-07T06:18:36.052Z,54.00
2017-08-07T06:23:39.231Z,52.80
2017-08-07T06:28:42.461Z,54.10
2017-08-07T06:33:45.655Z,55.40
2017-08-07T06:38:48.838Z,55.10
2017-08-07T06:43:52.025Z,55.30
2017-08-07T06:48:56.006Z,54.50
2017-08-07T06:53:59.175Z,54.50
2017-08-07T06:59:02.357Z,53.50
2017-08-07T07:04:05.575Z,52.50
2017-08-07T07:09:09.517Z,49.70
2017-08-07T07:14:12.723Z,49.70
2017-08-07T07:19:16.657Z,49.20
2017-08-07T07:24:19.834Z,49.10
2017-08-07T07:29:23.769Z,50.40
2017-08-07T07:34:27.720Z,49.30
2017-08-07T07:39:31.013Z,49.30
2017-08-07T07:44:34.953Z,49.40
2017-08-07T07:49:38.144Z,49.30
2017-08-07T07:54:42.069Z,48.30
2017-08-07T07:59:45.317Z,48.30
2017-08-07T08:04:48.526Z,49.10
2017-08-07T08:09:51.716Z,49.30
2017-08-07T08:14:54.905Z,47.80
2017-08-07T08:19:58.097Z,48.40
2017-08-07T08:25:02.054Z,47.50
2017-08-07T08:30:05.239Z,47.50
2017-08-07T08:35:09.190Z,46.80
2017-08-07T08:40:12.370Z,46.70
2017-08-07T08:45:15.597Z,48.20
2017-08-07T08:50:18.777Z,47.10
2017-08-07T08:55:22.736Z,46.00
2017-08-07T09:00:25.907Z,45.80
2017-08-07T09:05:29.091Z,46.00
2017-08-07T09:10:32.261Z,44.50
2017-08-07T09:15:35.569Z,45.10
2017-08-07T09:20:38.900Z,43.70
2017-08-07T09:25:42.089Z,43.00
2017-08-07T09:30:45.289Z,44.90
2017-08-07T09:35:48.497Z,43.70
2017-08-07T09:40:51.705Z,44.50
2017-08-07T09:45:54.942Z,44.00
2017-08-07T09:50:58.123Z,44.80
2017-08-07T09:56:01.320Z,44.40
2017-08-07T10:01:04.558Z,42.10
2017-08-07T10:06:07.732Z,43.20
2017-08-07T10:11:10.997Z,43.00
2017-08-07T10:16:14.931Z,42.50
2017-08-07T10:21:18.881Z,43.20
2017-08-07T10:26:22.094Z,43.10
2017-08-07T10:31:25.285Z,41.20
2017-08-07T10:36:28.482Z,41.20
2017-08-07T10:41:31.654Z,41.50
2017-08-07T10:46:34.845Z,37.40
2017-08-07T10:51:38.037Z,34.50
2017-08-07T10:56:41.215Z,33.70
2017-08-07T11:01:44.569Z,32.20
2017-08-07T11:06:47.746Z,33.60
2017-08-07T11:11:50.948Z,35.10
2017-08-07T11:16:54.365Z,35.50
2017-08-07T11:21:57.560Z,36.20
2017-08-07T11:27:00.856Z,37.40
2017-08-07T11:32:04.774Z,36.50
2017-08-07T11:37:07.978Z,36.50
2017-08-07T11:42:11.173Z,35.50
2017-08-07T11:47:15.137Z,35.70
2017-08-07T11:52:18.416Z,35.50
2017-08-07T11:57:21.724Z,36.40
2017-08-07T12:02:24.905Z,36.80
2017-08-07T12:07:28.097Z,37.20
2017-08-07T12:12:31.324Z,37.00
2017-08-07T12:17:35.290Z,36.20
2017-08-07T12:22:38.473Z,35.50
2017-08-07T12:27:42.425Z,36.70
2017-08-07T12:32:45.611Z,36.70
2017-08-07T12:37:48.798Z,36.30
2017-08-07T12:42:52.761Z,36.20
2017-08-07T12:47:55.958Z,36.10
2017-08-07T12:52:59.134Z,34.60
2017-08-07T12:58:03.093Z,34.70
2017-08-07T13:03:06.273Z,34.70
2017-08-07T13:08:10.222Z,33.00
2017-08-07T13:13:13.423Z,33.00
2017-08-07T13:18:16.619Z,33.20
2017-08-07T13:23:20.581Z,34.00
2017-08-07T13:28:23.774Z,33.90
2017-08-07T13:33:26.961Z,32.20
2017-08-07T13:38:30.163Z,32.20
2017-08-07T13:43:34.117Z,33.30
2017-08-07T13:48:37.294Z,33.30
2017-08-07T13:53:41.263Z,33.70
2017-08-07T13:58:44.454Z,33.70
2017-08-07T14:03:47.649Z,31.80
2017-08-07T14:08:50.904Z,33.10
2017-08-07T14:13:54.072Z,32.50
2017-08-07T14:18:57.289Z,32.20
2017-08-07T14:24:00.475Z,31.90
2017-08-07T14:29:03.773Z,31.00
2017-08-07T14:34:07.701Z,30.80
2017-08-07T14:39:10.966Z,30.80
2017-08-07T14:44:14.171Z,31.70
2017-08-07T14:49:17.390Z,31.90
2017-08-07T14:54:20.557Z,31.60
2017-08-07T14:59:23.759Z,32.40
2017-08-07T15:04:27.001Z,31.80
2017-08-07T15:09:30.531Z,31.30
2017-08-07T15:14:33.706Z,32.30
2017-08-07T15:19:36.936Z,32.50
2017-08-07T15:24:40.101Z,33.50
2017-08-07T15:29:43.307Z,32.80
2017-08-07T15:34:46.511Z,33.90
2017-08-07T15:39:49.698Z,33.10
2017-08-07T15:44:52.920Z,33.20
2017-08-07T15:49:56.092Z,32.00
2017-08-07T15:55:00.057Z,33.90
2017-08-07T16:00:03.233Z,33.90
2017-08-07T16:05:06.446Z,34.70
2017-08-07T16:10:09.651Z,32.80
2017-08-07T16:15:13.608Z,33.60
2017-08-07T16:20:16.809Z,33.50
2017-08-07T16:25:19.983Z,33.90
2017-08-07T16:30:32.760Z,33.10
2017-08-07T16:35:35.968Z,33.50
2017-08-07T16:40:39.208Z,33.80
2017-08-07T16:45:42.387Z,32.80
2017-08-07T16:50:45.647Z,32.20
2017-08-07T16:55:49.589Z,32.30
2017-08-07T17:00:52.785Z,32.70
2017-08-07T17:05:56.032Z,34.00
2017-08-07T17:10:59.197Z,34.20
2017-08-07T17:16:03.217Z,35.00
2017-08-07T17:21:07.160Z,34.60
2017-08-07T17:26:10.352Z,34.50
2017-08-07T17:31:14.601Z,34.60
2017-08-07T17:36:17.780Z,34.60
2017-08-07T17:41:21.761Z,35.20
2017-08-07T17:46:24.967Z,35.20
2017-08-07T17:51:28.191Z,35.90
2017-08-07T17:56:31.379Z,36.30
2017-08-07T18:01:34.573Z,35.80
2017-08-07T18:06:37.766Z,36.60
2017-08-07T18:11:40.961Z,37.10
2017-08-07T18:16:44.160Z,38.20
2017-08-07T18:21:48.144Z,39.00
2017-08-07T18:26:51.321Z,39.00
2017-08-07T18:31:54.514Z,39.20
2017-08-07T18:36:57.722Z,39.40
2017-08-07T18:42:00.939Z,39.70
2017-08-07T18:47:04.137Z,39.90
2017-08-07T18:52:07.314Z,40.30
2017-08-07T18:57:11.281Z,42.30
2017-08-07T19:02:14.470Z,42.30
2017-08-07T19:07:17.677Z,42.70
2017-08-07T19:12:20.868Z,42.80
2017-08-07T19:17:24.064Z,43.20
2017-08-07T19:22:28.041Z,43.60
2017-08-07T19:27:31.233Z,43.60
2017-08-07T19:32:34.422Z,44.10
2017-08-07T19:37:37.658Z,45.10
2017-08-07T19:42:40.846Z,45.70
2017-08-07T19:47:44.035Z,45.80
2017-08-07T19:52:48.060Z,47.80
2017-08-07T19:57:52.074Z,48.90
2017-08-07T20:02:56.037Z,49.40
2017-08-07T20:07:59.234Z,50.10
2017-08-07T20:13:02.431Z,49.70
2017-08-07T20:18:05.682Z,50.20
2017-08-07T20:23:08.843Z,51.70
2017-08-07T20:28:12.086Z,52.40
2017-08-07T20:33:15.266Z,53.60
2017-08-07T20:38:18.485Z,54.20
2017-08-07T20:43:21.774Z,55.00
2017-08-07T20:48:25.762Z,54.90
2017-08-07T20:53:29.049Z,54.90
2017-08-07T20:58:32.273Z,56.10
2017-08-07T21:03:35.450Z,55.90
2017-08-07T21:08:38.622Z,56.40
2017-08-07T21:13:41.872Z,56.50
2017-08-07T21:18:45.086Z,57.20
2017-08-07T21:23:48.282Z,58.00
2017-08-07T21:28:51.552Z,58.20
2017-08-07T21:33:55.556Z,59.30
2017-08-07T21:38:58.754Z,59.20
2017-08-07T21:44:01.943Z,59.60
2017-08-07T21:49:05.197Z,59.70
2017-08-07T21:54:09.156Z,59.80
2017-08-07T21:59:12.335Z,59.70
2017-08-07T22:04:15.511Z,60.90
2017-08-07T22:09:19.467Z,61.80
2017-08-07T22:14:22.675Z,61.00
2017-08-07T22:19:25.873Z,60.80
2017-08-07T22:24:29.061Z,60.90
2017-08-07T22:29:33.040Z,61.50
2017-08-07T22:34:36.244Z,61.50
2017-08-07T22:39:39.414Z,61.90
2017-08-07T22:44:42.606Z,62.20
2017-08-07T22:49:46.567Z,63.40
2017-08-07T22:54:49.733Z,62.90
2017-08-07T22:59:53.706Z,63.00
2017-08-07T23:04:56.932Z,63.60
2017-08-07T23:10:00.103Z,63.80
2017-08-07T23:15:03.295Z,64.10
2017-08-07T23:20:07.276Z,64.90
2017-08-07T23:25:10.457Z,64.90
2017-08-07T23:30:13.921Z,65.10
2017-08-07T23:35:17.892Z,65.60
2017-08-07T23:40:21.081Z,65.60
2017-08-07T23:45:24.250Z,65.00
2017-08-07T23:50:27.485Z,64.60
2017-08-07T23:55:31.413Z,66.10
